Y89 weather

Kalkaska City Airport
Kalkaska, Michigan, United States

Public forecast

Using degrees Fahrenheit for public forecast. Weather courtesy of forecast.io.

Closest aviation weather report (METAR) to Kalkaska City Airport

Closest report is Antrim County Airport, 15.8 nm (29.3 km) N. Retrieved 2020/04/05 21:36 UTC (0 seconds ago):

KACB 052136Z AUTO 27005KT 10SM CLR 09/M02 A3018 RMK AO2 T00881017

Closest aviation forecast (TAF) to Kalkaska City Airport

Closest forecast is Cherry Capital Airport, 16.2 nm (30.0 km) W. Retrieved 2020/04/05 18:22 UTC (3 hours ago):

TAF KTVC 051720Z 0518/0618 02007KT P6SM SKC FM060100 VRB03KT P6SM SKC FM061100 VRB03KT P6SM BKN200 FM061600 23006KT P6SM BKN140